Wilhelmshaven Mariensiel, Germany

3:07 AM CEST on July 30, 2014 (GMT +0200)
Schortens (ILOWERSA3) Elev 30 ft | 53.54 °N, 7.95 °E | Change Station

Current weather conditions updated 7 minutes ago

Clear
Clear
66.2 °F
Feels Like 66.2 °F
N
5.0
Wind Variable Wind from NNW
Gusts 8.0 mph

Today is forecast to be Much Cooler than yesterday.

Today
High -- | Low -- °F
--% Chance of Precip.
Yesterday
High -- | Low -- °F
Precip. -- in
5:39 AM 9:27 PM
Waxing Crescent, 8% visible
Pressure 29.77 in
Visibility -9999.0 miles
Clouds
Dew Point 56 °F
Humidity 69%
Rainfall 0.00 in
Snow Depth Not available.
UV Not available.
Pollen Not available.
Air Quality Not available.
Flu Activity Not available.
METAR EDDW 300050Z 33011KT 300V360 CAVOK 20/16 Q1008

More Conditions Fewer Conditions

Pressure 29.77 in
Visibility -9999.0 miles
Clouds
Dew Point 56 °F
Humidity 69%
Rainfall 0.00 in
Snow Depth Not available.
UV Not available.
Pollen Not available.
Air Quality Not available.
Flu Activity Not available.
METAR EDDW 300050Z 33011KT 300V360 CAVOK 20/16 Q1008

More Conditions Fewer Conditions

10-Day Weather Forecast

Almanac

Astronomy

Jul. 30, 2014 Rise Set
Actual Time 5:39 AM CEST 9:27 PM CEST
Civil Twilight 4:55 AM CEST 10:11 PM CEST
Nautical Twilight 3:52 AM CEST 11:13 PM CEST
Astronomical Twilight 2:06 AM CEST 1:11 AM CEST
Moon 9:33 AM CEST 10:21 PM CEST
Length of Visible Light 17h 16m
Length of Day
15h 47m
Tomorrow will be 3m 22s shorter.
Waxing Crescent, 8% of the Moon is Illuminated
Jul 29
Waxing Crescent
Aug 3
First Quarter
Aug 10
Full
Aug 17
Last Quarter
Aug 25
New

Yesterday's Extremes

Country Highs Country Lows

Community

WunderPhotos

Upload Photos

1,738,939 photos uploaded!

Nearby

Snow Depth

Not available.

Earthquake Activity

City Distance Mag. Time & Date
No recent earthquake activity has been reported nearby.
Minimum magnitude displayed is 2.5.

Coastal Water Temperatures

Place Temperature
No Stations Reporting

Nearby Weather Stations

Station Location Temp. Dew Point Humidity Wind Precip. Elev Updated Type
Schortens, Heidmuehle 66.2 °F 56 °F 69% NNW  at  5.0 mph 0.00 in / hr 30 ft 3:00 AM CEST Normal
Westerstede / Moorburg, Westerstede 64.6 °F 63 °F 94% ESE  at  0.9 mph 0.00 in / hr 26 ft 3:07 AM CEST Rapid Fire
Eldstad, Westerstede 64.6 °F 63 °F 94% North  at  0.0 mph 0.00 in / hr 10 ft 3:07 AM CEST Rapid Fire
Moorackerweg, Aurich 64.4 °F 61 °F 89% SSW  at  0.0 mph 0.00 in / hr 23 ft 3:07 AM CEST Rapid Fire
W'ooge-Airport, Wangerooge 65.2 °F 61 °F 85% NNW  at  8.0 mph 0.00 in / hr 6 ft 2:00 AM BST Normal
Nordsee/Schulte, Holtgast 65.5 °F 61 °F 86% ESE  at  0.0 mph 0.00 in / hr 10 ft 3:07 AM CEST Rapid Fire
Apen, Apen 67.1 °F 60 °F 81% North  at  - - / hr 13 ft 3:05 AM CEST Normal

Show More Stations Show Fewer Stations